sensor_id;sensor_type;location;lat;lon;timestamp;P1;durP1;ratioP1;P2;durP2;ratioP2
51236;SDS011;37312;47.550;18.818;2022-09-17T10:47:39;2.13;;;1.87;;
51236;SDS011;37312;47.550;18.818;2022-09-17T10:50:15;4.22;;;2.50;;
51236;SDS011;37312;47.550;18.818;2022-09-17T10:52:46;1.70;;;1.45;;
51236;SDS011;37312;47.550;18.818;2022-09-17T10:58:08;2.70;;;1.95;;
51236;SDS011;37312;47.550;18.818;2022-09-17T11:00:57;3.47;;;1.75;;
51236;SDS011;37312;47.550;18.818;2022-09-17T11:08:47;4.43;;;2.00;;
51236;SDS011;37312;47.550;18.818;2022-09-17T11:11:28;4.20;;;1.98;;
51236;SDS011;37312;47.550;18.818;2022-09-17T11:20:16;8.30;;;1.67;;
51236;SDS011;37312;47.550;18.818;2022-09-17T11:26:18;1.40;;;1.20;;
51236;SDS011;37312;47.550;18.818;2022-09-17T11:37:27;2.35;;;2.00;;
51236;SDS011;37312;47.550;18.818;2022-09-17T11:39:59;2.85;;;1.80;;
51236;SDS011;37312;47.550;18.818;2022-09-17T11:45:49;2.22;;;1.33;;
51236;SDS011;37312;47.550;18.818;2022-09-17T11:47:59;1.65;;;1.17;;
51236;SDS011;37312;47.550;18.818;2022-09-17T11:50:52;2.75;;;1.75;;
51236;SDS011;37312;47.550;18.818;2022-09-17T11:56:19;1.30;;;1.20;;
51236;SDS011;37312;47.550;18.818;2022-09-17T12:13:18;2.20;;;2.00;;
51236;SDS011;37312;47.550;18.818;2022-09-17T12:15:48;4.20;;;1.67;;
51236;SDS011;37312;47.550;18.818;2022-09-17T12:21:15;2.37;;;2.15;;
51236;SDS011;37312;47.550;18.818;2022-09-17T12:23:51;2.28;;;2.00;;
51236;SDS011;37312;47.550;18.818;2022-09-17T12:38:34;4.18;;;1.40;;
51236;SDS011;37312;47.550;18.818;2022-09-17T12:41:20;6.97;;;2.58;;
51236;SDS011;37312;47.550;18.818;2022-09-17T12:46:36;2.10;;;1.90;;
51236;SDS011;37312;47.550;18.818;2022-09-17T12:57:24;3.05;;;2.17;;
51236;SDS011;37312;47.550;18.818;2022-09-17T13:00:12;5.37;;;2.53;;
51236;SDS011;37312;47.550;18.818;2022-09-17T13:05:49;3.28;;;2.47;;
51236;SDS011;37312;47.550;18.818;2022-09-17T13:14:26;2.53;;;2.22;;
51236;SDS011;37312;47.550;18.818;2022-09-17T13:19:41;6.60;;;2.65;;
51236;SDS011;37312;47.550;18.818;2022-09-17T13:22:18;4.90;;;1.75;;
51236;SDS011;37312;47.550;18.818;2022-09-17T13:24:46;2.90;;;1.70;;
51236;SDS011;37312;47.550;18.818;2022-09-17T13:27:25;3.28;;;2.03;;
51236;SDS011;37312;47.550;18.818;2022-09-17T13:37:31;1.83;;;1.58;;
51236;SDS011;37312;47.550;18.818;2022-09-17T13:40:00;3.80;;;2.17;;
51236;SDS011;37312;47.550;18.818;2022-09-17T13:42:30;3.72;;;2.03;;
51236;SDS011;37312;47.550;18.818;2022-09-17T13:45:10;2.78;;;2.00;;
51236;SDS011;37312;47.550;18.818;2022-09-17T13:50:25;5.37;;;1.85;;
51236;SDS011;37312;47.550;18.818;2022-09-17T13:52:57;4.37;;;2.50;;
51236;SDS011;37312;47.550;18.818;2022-09-17T13:55:44;2.58;;;2.10;;
51236;SDS011;37312;47.550;18.818;2022-09-17T14:03:26;2.20;;;1.42;;
51236;SDS011;37312;47.550;18.818;2022-09-17T14:13:53;2.30;;;1.85;;
51236;SDS011;37312;47.550;18.818;2022-09-17T14:24:35;1.77;;;1.40;;
51236;SDS011;37312;47.550;18.818;2022-09-17T14:32:31;2.58;;;1.50;;
51236;SDS011;37312;47.550;18.818;2022-09-17T14:37:41;1.87;;;1.73;;
51236;SDS011;37312;47.550;18.818;2022-09-17T14:40:10;1.70;;;1.60;;
51236;SDS011;37312;47.550;18.818;2022-09-17T14:42:42;2.28;;;1.62;;
51236;SDS011;37312;47.550;18.818;2022-09-17T14:45:18;2.17;;;1.98;;
51236;SDS011;37312;47.550;18.818;2022-09-17T14:47:48;5.32;;;2.05;;
51236;SDS011;37312;47.550;18.818;2022-09-17T14:52:48;1.87;;;1.45;;
51236;SDS011;37312;47.550;18.818;2022-09-17T14:55:17;5.05;;;1.67;;
51236;SDS011;37312;47.550;18.818;2022-09-17T14:57:49;3.85;;;2.05;;
51236;SDS011;37312;47.550;18.818;2022-09-17T15:00:19;1.62;;;1.50;;
51236;SDS011;37312;47.550;18.818;2022-09-17T15:02:54;3.60;;;1.40;;
51236;SDS011;37312;47.550;18.818;2022-09-17T15:05:25;3.25;;;2.92;;
51236;SDS011;37312;47.550;18.818;2022-09-17T15:10:35;3.97;;;1.58;;
51236;SDS011;37312;47.550;18.818;2022-09-17T15:13:10;3.28;;;1.75;;
51236;SDS011;37312;47.550;18.818;2022-09-17T15:15:39;6.78;;;2.25;;
51236;SDS011;37312;47.550;18.818;2022-09-17T15:18:16;2.75;;;1.83;;
51236;SDS011;37312;47.550;18.818;2022-09-17T15:20:42;1.87;;;1.73;;
51236;SDS011;37312;47.550;18.818;2022-09-17T15:23:19;2.25;;;1.48;;
51236;SDS011;37312;47.550;18.818;2022-09-17T15:25:50;4.85;;;1.15;;
51236;SDS011;37312;47.550;18.818;2022-09-17T15:28:31;1.50;;;1.30;;
51236;SDS011;37312;47.550;18.818;2022-09-17T15:31:01;2.45;;;2.00;;
51236;SDS011;37312;47.550;18.818;2022-09-17T15:33:30;1.15;;;1.05;;
51236;SDS011;37312;47.550;18.818;2022-09-17T15:35:58;1.17;;;0.73;;
51236;SDS011;37312;47.550;18.818;2022-09-17T15:38:27;2.70;;;1.50;;
51236;SDS011;37312;47.550;18.818;2022-09-17T15:40:54;2.05;;;1.42;;
51236;SDS011;37312;47.550;18.818;2022-09-17T15:43:36;1.52;;;1.17;;
51236;SDS011;37312;47.550;18.818;2022-09-17T15:49:26;1.67;;;1.58;;
51236;SDS011;37312;47.550;18.818;2022-09-17T15:55:00;0.85;;;0.85;;
51236;SDS011;37312;47.550;18.818;2022-09-17T15:57:26;1.67;;;1.55;;
51236;SDS011;37312;47.550;18.818;2022-09-17T15:59:55;1.15;;;1.00;;
51236;SDS011;37312;47.550;18.818;2022-09-17T16:02:30;1.58;;;1.08;;
51236;SDS011;37312;47.550;18.818;2022-09-17T16:07:48;3.28;;;1.52;;
51236;SDS011;37312;47.550;18.818;2022-09-17T16:10:15;2.53;;;1.50;;
51236;SDS011;37312;47.550;18.818;2022-09-17T16:12:41;3.00;;;1.35;;
51236;SDS011;37312;47.550;18.818;2022-09-17T16:15:07;2.37;;;1.20;;
51236;SDS011;37312;47.550;18.818;2022-09-17T16:20:22;2.65;;;1.75;;
51236;SDS011;37312;47.550;18.818;2022-09-17T16:22:50;5.57;;;1.90;;
51236;SDS011;37312;47.550;18.818;2022-09-17T16:25:18;2.83;;;1.95;;
51236;SDS011;37312;47.550;18.818;2022-09-17T16:27:49;2.33;;;2.00;;
51236;SDS011;37312;47.550;18.818;2022-09-17T16:30:18;4.40;;;1.60;;
51236;SDS011;37312;47.550;18.818;2022-09-17T16:32:46;1.77;;;1.62;;
51236;SDS011;37312;47.550;18.818;2022-09-17T16:35:13;2.45;;;1.70;;
51236;SDS011;37312;47.550;18.818;2022-09-17T16:37:41;2.28;;;1.75;;
51236;SDS011;37312;47.550;18.818;2022-09-17T16:40:10;3.55;;;1.67;;
51236;SDS011;37312;47.550;18.818;2022-09-17T16:42:37;4.55;;;2.05;;
51236;SDS011;37312;47.550;18.818;2022-09-17T16:45:04;2.87;;;2.65;;
51236;SDS011;37312;47.550;18.818;2022-09-17T16:47:35;2.60;;;1.80;;
51236;SDS011;37312;47.550;18.818;2022-09-17T16:50:02;2.03;;;1.77;;
51236;SDS011;37312;47.550;18.818;2022-09-17T16:52:33;2.97;;;2.30;;
51236;SDS011;37312;47.550;18.818;2022-09-17T16:55:00;3.00;;;2.70;;
51236;SDS011;37312;47.550;18.818;2022-09-17T16:57:27;1.92;;;1.73;;
51236;SDS011;37312;47.550;18.818;2022-09-17T16:59:53;1.77;;;1.65;;
51236;SDS011;37312;47.550;18.818;2022-09-17T17:02:19;2.45;;;1.37;;
51236;SDS011;37312;47.550;18.818;2022-09-17T17:04:45;5.10;;;2.08;;
51236;SDS011;37312;47.550;18.818;2022-09-17T17:07:12;2.03;;;1.80;;
51236;SDS011;37312;47.550;18.818;2022-09-17T17:09:38;3.70;;;1.37;;
51236;SDS011;37312;47.550;18.818;2022-09-17T17:12:04;2.20;;;1.98;;
51236;SDS011;37312;47.550;18.818;2022-09-17T17:14:30;2.22;;;1.55;;
51236;SDS011;37312;47.550;18.818;2022-09-17T17:16:56;2.87;;;1.40;;
51236;SDS011;37312;47.550;18.818;2022-09-17T17:19:22;1.62;;;1.25;;
51236;SDS011;37312;47.550;18.818;2022-09-17T17:21:49;2.17;;;1.90;;
51236;SDS011;37312;47.550;18.818;2022-09-17T17:24:16;3.97;;;1.87;;
51236;SDS011;37312;47.550;18.818;2022-09-17T17:26:42;2.53;;;1.90;;
51236;SDS011;37312;47.550;18.818;2022-09-17T17:29:08;3.35;;;1.92;;
51236;SDS011;37312;47.550;18.818;2022-09-17T17:31:34;1.35;;;1.25;;
51236;SDS011;37312;47.550;18.818;2022-09-17T17:34:00;3.22;;;1.95;;
51236;SDS011;37312;47.550;18.818;2022-09-17T17:36:26;2.15;;;1.85;;
51236;SDS011;37312;47.550;18.818;2022-09-17T17:38:58;2.35;;;1.98;;
51236;SDS011;37312;47.550;18.818;2022-09-17T17:41:25;2.55;;;1.33;;
51236;SDS011;37312;47.550;18.818;2022-09-17T17:43:52;1.50;;;1.40;;
51236;SDS011;37312;47.550;18.818;2022-09-17T17:46:19;2.70;;;2.08;;
51236;SDS011;37312;47.550;18.818;2022-09-17T17:48:45;2.92;;;2.58;;
51236;SDS011;37312;47.550;18.818;2022-09-17T17:51:11;14.02;;;10.77;;
51236;SDS011;37312;47.550;18.818;2022-09-17T17:53:40;29.05;;;17.40;;
51236;SDS011;37312;47.550;18.818;2022-09-17T17:56:07;14.75;;;7.82;;
51236;SDS011;37312;47.550;18.818;2022-09-17T17:58:35;11.90;;;6.45;;
51236;SDS011;37312;47.550;18.818;2022-09-17T18:01:08;4.10;;;2.85;;
51236;SDS011;37312;47.550;18.818;2022-09-17T18:03:44;6.05;;;2.08;;
51236;SDS011;37312;47.550;18.818;2022-09-17T18:06:10;2.05;;;1.80;;
51236;SDS011;37312;47.550;18.818;2022-09-17T18:08:38;3.95;;;2.12;;
51236;SDS011;37312;47.550;18.818;2022-09-17T18:11:05;4.87;;;1.30;;
51236;SDS011;37312;47.550;18.818;2022-09-17T18:13:35;2.12;;;1.52;;
51236;SDS011;37312;47.550;18.818;2022-09-17T18:16:03;5.75;;;1.10;;
51236;SDS011;37312;47.550;18.818;2022-09-17T18:18:31;1.27;;;1.08;;
51236;SDS011;37312;47.550;18.818;2022-09-17T18:21:03;2.95;;;1.85;;
51236;SDS011;37312;47.550;18.818;2022-09-17T18:23:32;1.80;;;1.35;;
51236;SDS011;37312;47.550;18.818;2022-09-17T18:26:00;1.48;;;1.37;;
51236;SDS011;37312;47.550;18.818;2022-09-17T18:28:27;2.80;;;1.62;;
51236;SDS011;37312;47.550;18.818;2022-09-17T18:30:54;3.62;;;1.77;;
51236;SDS011;37312;47.550;18.818;2022-09-17T18:33:25;2.08;;;1.83;;
51236;SDS011;37312;47.550;18.818;2022-09-17T18:35:52;3.28;;;2.17;;
51236;SDS011;37312;47.550;18.818;2022-09-17T18:38:22;1.90;;;1.75;;
51236;SDS011;37312;47.550;18.818;2022-09-17T18:40:48;2.70;;;1.90;;
51236;SDS011;37312;47.550;18.818;2022-09-17T18:43:15;3.75;;;2.12;;
51236;SDS011;37312;47.550;18.818;2022-09-17T18:45:41;1.67;;;1.58;;
51236;SDS011;37312;47.550;18.818;2022-09-17T18:48:07;2.28;;;1.50;;
51236;SDS011;37312;47.550;18.818;2022-09-17T18:50:34;1.62;;;1.42;;
51236;SDS011;37312;47.550;18.818;2022-09-17T18:53:00;2.25;;;1.50;;
51236;SDS011;37312;47.550;18.818;2022-09-17T18:55:26;1.87;;;1.77;;
51236;SDS011;37312;47.550;18.818;2022-09-17T18:57:53;2.65;;;1.25;;
51236;SDS011;37312;47.550;18.818;2022-09-17T19:00:19;5.72;;;2.40;;
51236;SDS011;37312;47.550;18.818;2022-09-17T19:02:47;1.48;;;1.33;;
51236;SDS011;37312;47.550;18.818;2022-09-17T19:05:14;1.83;;;1.30;;
51236;SDS011;37312;47.550;18.818;2022-09-17T19:07:46;1.83;;;1.45;;
51236;SDS011;37312;47.550;18.818;2022-09-17T19:10:12;2.78;;;1.35;;
51236;SDS011;37312;47.550;18.818;2022-09-17T19:12:39;1.48;;;1.30;;
51236;SDS011;37312;47.550;18.818;2022-09-17T19:15:05;2.30;;;1.98;;
51236;SDS011;37312;47.550;18.818;2022-09-17T19:17:34;7.43;;;2.08;;
51236;SDS011;37312;47.550;18.818;2022-09-17T19:20:00;2.10;;;1.60;;
51236;SDS011;37312;47.550;18.818;2022-09-17T19:22:27;1.40;;;1.30;;
51236;SDS011;37312;47.550;18.818;2022-09-17T19:24:53;1.95;;;1.75;;
51236;SDS011;37312;47.550;18.818;2022-09-17T19:27:19;2.08;;;1.75;;
51236;SDS011;37312;47.550;18.818;2022-09-17T19:29:45;4.45;;;1.25;;
51236;SDS011;37312;47.550;18.818;2022-09-17T19:32:11;2.53;;;1.95;;
51236;SDS011;37312;47.550;18.818;2022-09-17T19:34:36;5.45;;;2.25;;
51236;SDS011;37312;47.550;18.818;2022-09-17T19:37:02;1.27;;;1.17;;
51236;SDS011;37312;47.550;18.818;2022-09-17T19:39:28;2.20;;;1.40;;
51236;SDS011;37312;47.550;18.818;2022-09-17T19:41:54;1.92;;;1.80;;
51236;SDS011;37312;47.550;18.818;2022-09-17T19:44:21;13.90;;;1.90;;
51236;SDS011;37312;47.550;18.818;2022-09-17T19:46:48;1.95;;;1.58;;
51236;SDS011;37312;47.550;18.818;2022-09-17T19:49:17;1.92;;;1.83;;
51236;SDS011;37312;47.550;18.818;2022-09-17T19:51:44;2.22;;;1.83;;
51236;SDS011;37312;47.550;18.818;2022-09-17T19:54:10;2.33;;;1.73;;
51236;SDS011;37312;47.550;18.818;2022-09-17T19:56:36;1.50;;;1.30;;
51236;SDS011;37312;47.550;18.818;2022-09-17T19:59:02;1.85;;;1.73;;
51236;SDS011;37312;47.550;18.818;2022-09-17T20:01:28;1.83;;;1.48;;
51236;SDS011;37312;47.550;18.818;2022-09-17T20:03:54;4.68;;;2.17;;
51236;SDS011;37312;47.550;18.818;2022-09-17T20:06:20;1.25;;;1.15;;
51236;SDS011;37312;47.550;18.818;2022-09-17T20:08:49;1.80;;;1.42;;
51236;SDS011;37312;47.550;18.818;2022-09-17T20:11:17;5.90;;;1.92;;
51236;SDS011;37312;47.550;18.818;2022-09-17T20:13:44;5.12;;;1.48;;
51236;SDS011;37312;47.550;18.818;2022-09-17T20:16:11;1.58;;;1.37;;
51236;SDS011;37312;47.550;18.818;2022-09-17T20:18:39;1.73;;;1.62;;
51236;SDS011;37312;47.550;18.818;2022-09-17T20:21:12;2.10;;;1.70;;
51236;SDS011;37312;47.550;18.818;2022-09-17T20:23:40;1.70;;;1.30;;
51236;SDS011;37312;47.550;18.818;2022-09-17T20:26:06;1.52;;;1.20;;
51236;SDS011;37312;47.550;18.818;2022-09-17T20:28:32;1.85;;;1.45;;
51236;SDS011;37312;47.550;18.818;2022-09-17T20:31:02;3.35;;;1.30;;
51236;SDS011;37312;47.550;18.818;2022-09-17T20:33:29;1.85;;;1.08;;
51236;SDS011;37312;47.550;18.818;2022-09-17T20:35:59;1.60;;;1.50;;
51236;SDS011;37312;47.550;18.818;2022-09-17T20:38:29;1.65;;;1.30;;
51236;SDS011;37312;47.550;18.818;2022-09-17T20:41:00;1.08;;;0.98;;
51236;SDS011;37312;47.550;18.818;2022-09-17T20:43:31;1.00;;;0.95;;
51236;SDS011;37312;47.550;18.818;2022-09-17T20:45:58;1.17;;;1.00;;
51236;SDS011;37312;47.550;18.818;2022-09-17T20:48:24;1.23;;;1.02;;
51236;SDS011;37312;47.550;18.818;2022-09-17T20:50:56;1.17;;;1.08;;
51236;SDS011;37312;47.550;18.818;2022-09-17T20:53:24;1.77;;;1.67;;
51236;SDS011;37312;47.550;18.818;2022-09-17T20:55:57;4.28;;;1.75;;
51236;SDS011;37312;47.550;18.818;2022-09-17T20:59:02;3.83;;;1.40;;
51236;SDS011;37312;47.550;18.818;2022-09-17T21:01:53;2.60;;;1.00;;
51236;SDS011;37312;47.550;18.818;2022-09-17T21:04:22;2.75;;;1.33;;
51236;SDS011;37312;47.550;18.818;2022-09-17T21:06:52;2.85;;;1.02;;
51236;SDS011;37312;47.550;18.818;2022-09-17T21:09:18;1.77;;;1.30;;
51236;SDS011;37312;47.550;18.818;2022-09-17T21:11:45;2.00;;;1.62;;
51236;SDS011;37312;47.550;18.818;2022-09-17T21:14:12;1.27;;;1.05;;
51236;SDS011;37312;47.550;18.818;2022-09-17T21:16:40;2.45;;;1.30;;
51236;SDS011;37312;47.550;18.818;2022-09-17T21:19:07;2.83;;;1.33;;
51236;SDS011;37312;47.550;18.818;2022-09-17T21:21:33;1.50;;;1.23;;
51236;SDS011;37312;47.550;18.818;2022-09-17T21:24:00;1.15;;;1.05;;
51236;SDS011;37312;47.550;18.818;2022-09-17T21:26:27;1.67;;;1.48;;
51236;SDS011;37312;47.550;18.818;2022-09-17T21:28:54;3.97;;;1.20;;
51236;SDS011;37312;47.550;18.818;2022-09-17T21:31:25;1.67;;;1.23;;
51236;SDS011;37312;47.550;18.818;2022-09-17T21:33:53;1.20;;;1.10;;
51236;SDS011;37312;47.550;18.818;2022-09-17T21:36:22;1.83;;;1.45;;
51236;SDS011;37312;47.550;18.818;2022-09-17T21:38:54;1.62;;;1.10;;
51236;SDS011;37312;47.550;18.818;2022-09-17T21:41:22;2.15;;;1.33;;
51236;SDS011;37312;47.550;18.818;2022-09-17T21:43:49;1.37;;;1.23;;
51236;SDS011;37312;47.550;18.818;2022-09-17T21:46:18;1.55;;;1.40;;
51236;SDS011;37312;47.550;18.818;2022-09-17T21:48:50;1.58;;;1.12;;
51236;SDS011;37312;47.550;18.818;2022-09-17T21:53:59;2.92;;;2.12;;
51236;SDS011;37312;47.550;18.818;2022-09-17T21:56:27;2.58;;;1.15;;
51236;SDS011;37312;47.550;18.818;2022-09-17T21:58:54;1.05;;;0.95;;
51236;SDS011;37312;47.550;18.818;2022-09-17T22:01:26;1.30;;;1.08;;
51236;SDS011;37312;47.550;18.818;2022-09-17T22:03:56;0.80;;;0.75;;
51236;SDS011;37312;47.550;18.818;2022-09-17T22:06:24;0.70;;;0.70;;
51236;SDS011;37312;47.550;18.818;2022-09-17T22:08:52;1.15;;;0.85;;
51236;SDS011;37312;47.550;18.818;2022-09-17T22:11:26;2.05;;;1.12;;
51236;SDS011;37312;47.550;18.818;2022-09-17T22:13:57;1.25;;;1.15;;
51236;SDS011;37312;47.550;18.818;2022-09-17T22:16:29;1.62;;;1.12;;
51236;SDS011;37312;47.550;18.818;2022-09-17T22:18:57;0.80;;;0.80;;
51236;SDS011;37312;47.550;18.818;2022-09-17T22:21:28;0.70;;;0.70;;
51236;SDS011;37312;47.550;18.818;2022-09-17T22:23:56;0.93;;;0.90;;
51236;SDS011;37312;47.550;18.818;2022-09-17T22:26:23;1.17;;;1.00;;
51236;SDS011;37312;47.550;18.818;2022-09-17T22:28:51;3.25;;;1.52;;
51236;SDS011;37312;47.550;18.818;2022-09-17T22:31:17;2.50;;;1.58;;
51236;SDS011;37312;47.550;18.818;2022-09-17T22:33:45;2.47;;;1.05;;
51236;SDS011;37312;47.550;18.818;2022-09-17T22:36:13;1.83;;;1.10;;
51236;SDS011;37312;47.550;18.818;2022-09-17T22:38:44;0.95;;;0.80;;
51236;SDS011;37312;47.550;18.818;2022-09-17T22:41:12;3.15;;;1.25;;
51236;SDS011;37312;47.550;18.818;2022-09-17T22:43:42;1.58;;;1.27;;
51236;SDS011;37312;47.550;18.818;2022-09-17T22:46:18;2.45;;;1.20;;
51236;SDS011;37312;47.550;18.818;2022-09-17T22:48:47;3.90;;;1.60;;
51236;SDS011;37312;47.550;18.818;2022-09-17T22:51:13;1.77;;;1.65;;
51236;SDS011;37312;47.550;18.818;2022-09-17T22:53:39;4.37;;;1.37;;
51236;SDS011;37312;47.550;18.818;2022-09-17T22:56:07;1.50;;;1.40;;
51236;SDS011;37312;47.550;18.818;2022-09-17T22:58:38;1.67;;;1.25;;
51236;SDS011;37312;47.550;18.818;2022-09-17T23:01:05;3.55;;;1.30;;
51236;SDS011;37312;47.550;18.818;2022-09-17T23:03:36;2.60;;;1.40;;
51236;SDS011;37312;47.550;18.818;2022-09-17T23:06:03;2.12;;;1.58;;
51236;SDS011;37312;47.550;18.818;2022-09-17T23:08:32;2.87;;;1.45;;
51236;SDS011;37312;47.550;18.818;2022-09-17T23:10:58;1.62;;;1.52;;
51236;SDS011;37312;47.550;18.818;2022-09-17T23:13:25;1.70;;;1.20;;
51236;SDS011;37312;47.550;18.818;2022-09-17T23:15:51;4.80;;;1.27;;
51236;SDS011;37312;47.550;18.818;2022-09-17T23:18:17;2.15;;;1.20;;
51236;SDS011;37312;47.550;18.818;2022-09-17T23:20:43;1.23;;;1.12;;
51236;SDS011;37312;47.550;18.818;2022-09-17T23:23:19;1.15;;;0.95;;
51236;SDS011;37312;47.550;18.818;2022-09-17T23:25:45;5.32;;;1.37;;
51236;SDS011;37312;47.550;18.818;2022-09-17T23:28:11;2.58;;;1.67;;
51236;SDS011;37312;47.550;18.818;2022-09-17T23:30:37;2.37;;;1.23;;
51236;SDS011;37312;47.550;18.818;2022-09-17T23:33:03;2.87;;;1.45;;
51236;SDS011;37312;47.550;18.818;2022-09-17T23:35:29;5.07;;;1.67;;
51236;SDS011;37312;47.550;18.818;2022-09-17T23:37:57;2.67;;;1.42;;
51236;SDS011;37312;47.550;18.818;2022-09-17T23:40:23;4.75;;;1.98;;
51236;SDS011;37312;47.550;18.818;2022-09-17T23:42:53;2.80;;;1.20;;
51236;SDS011;37312;47.550;18.818;2022-09-17T23:45:20;2.53;;;1.90;;
51236;SDS011;37312;47.550;18.818;2022-09-17T23:47:46;3.15;;;1.55;;
51236;SDS011;37312;47.550;18.818;2022-09-17T23:50:12;2.92;;;1.87;;
51236;SDS011;37312;47.550;18.818;2022-09-17T23:52:38;6.87;;;1.60;;
51236;SDS011;37312;47.550;18.818;2022-09-17T23:55:05;7.07;;;1.90;;
51236;SDS011;37312;47.550;18.818;2022-09-17T23:57:31;1.73;;;1.62;;
51236;SDS011;37312;47.550;18.818;2022-09-17T23:59:57;1.45;;;1.35;;
